sensor_id;sensor_type;location;lat;lon;timestamp;P1;durP1;ratioP1;P2;durP2;ratioP2
23884;SDS011;12123;53.088;7.392;2022-09-21T00:00:23;8.20;;;5.18;;
23884;SDS011;12123;53.088;7.392;2022-09-21T00:02:50;8.57;;;5.03;;
23884;SDS011;12123;53.088;7.392;2022-09-21T00:05:18;7.03;;;4.63;;
23884;SDS011;12123;53.088;7.392;2022-09-21T00:07:45;7.93;;;4.13;;
23884;SDS011;12123;53.088;7.392;2022-09-21T00:10:12;11.20;;;5.18;;
23884;SDS011;12123;53.088;7.392;2022-09-21T00:12:39;10.50;;;4.97;;
23884;SDS011;12123;53.088;7.392;2022-09-21T00:15:08;8.20;;;5.00;;
23884;SDS011;12123;53.088;7.392;2022-09-21T00:17:35;10.63;;;4.80;;
23884;SDS011;12123;53.088;7.392;2022-09-21T00:20:03;12.32;;;5.45;;
23884;SDS011;12123;53.088;7.392;2022-09-21T00:22:31;11.77;;;5.43;;
23884;SDS011;12123;53.088;7.392;2022-09-21T00:24:59;12.85;;;5.63;;
23884;SDS011;12123;53.088;7.392;2022-09-21T00:27:31;12.55;;;5.43;;
23884;SDS011;12123;53.088;7.392;2022-09-21T00:29:58;11.80;;;4.75;;
23884;SDS011;12123;53.088;7.392;2022-09-21T00:32:28;9.98;;;5.13;;
23884;SDS011;12123;53.088;7.392;2022-09-21T00:34:58;12.77;;;5.13;;
23884;SDS011;12123;53.088;7.392;2022-09-21T00:37:26;10.82;;;4.93;;
23884;SDS011;12123;53.088;7.392;2022-09-21T00:39:53;11.48;;;5.30;;
23884;SDS011;12123;53.088;7.392;2022-09-21T00:42:22;13.55;;;5.50;;
23884;SDS011;12123;53.088;7.392;2022-09-21T00:44:49;10.00;;;5.35;;
23884;SDS011;12123;53.088;7.392;2022-09-21T00:47:18;12.30;;;6.53;;
23884;SDS011;12123;53.088;7.392;2022-09-21T00:49:49;9.65;;;4.95;;
23884;SDS011;12123;53.088;7.392;2022-09-21T00:52:19;13.80;;;5.63;;
23884;SDS011;12123;53.088;7.392;2022-09-21T00:54:50;11.90;;;5.25;;
23884;SDS011;12123;53.088;7.392;2022-09-21T00:57:18;10.02;;;5.45;;
23884;SDS011;12123;53.088;7.392;2022-09-21T00:59:47;9.27;;;5.07;;
23884;SDS011;12123;53.088;7.392;2022-09-21T01:02:16;7.00;;;4.90;;
23884;SDS011;12123;53.088;7.392;2022-09-21T01:04:44;17.90;;;6.22;;
23884;SDS011;12123;53.088;7.392;2022-09-21T01:07:17;13.18;;;5.88;;
23884;SDS011;12123;53.088;7.392;2022-09-21T01:09:46;8.18;;;4.90;;
23884;SDS011;12123;53.088;7.392;2022-09-21T01:15:04;9.38;;;4.95;;
23884;SDS011;12123;53.088;7.392;2022-09-21T01:17:37;10.85;;;5.07;;
23884;SDS011;12123;53.088;7.392;2022-09-21T01:30:59;10.52;;;5.18;;
23884;SDS011;12123;53.088;7.392;2022-09-21T01:33:32;6.63;;;4.75;;
23884;SDS011;12123;53.088;7.392;2022-09-21T01:36:08;8.68;;;5.28;;
23884;SDS011;12123;53.088;7.392;2022-09-21T01:38:37;9.10;;;5.40;;
23884;SDS011;12123;53.088;7.392;2022-09-21T01:41:06;10.13;;;4.90;;
23884;SDS011;12123;53.088;7.392;2022-09-21T01:43:36;8.80;;;5.72;;
23884;SDS011;12123;53.088;7.392;2022-09-21T01:46:05;9.95;;;5.55;;
23884;SDS011;12123;53.088;7.392;2022-09-21T01:48:35;11.30;;;6.35;;
23884;SDS011;12123;53.088;7.392;2022-09-21T01:51:06;12.23;;;6.60;;
23884;SDS011;12123;53.088;7.392;2022-09-21T01:53:39;9.48;;;6.28;;
23884;SDS011;12123;53.088;7.392;2022-09-21T01:56:12;11.35;;;5.88;;
23884;SDS011;12123;53.088;7.392;2022-09-21T02:01:26;9.38;;;5.65;;
23884;SDS011;12123;53.088;7.392;2022-09-21T02:04:02;10.70;;;5.50;;
23884;SDS011;12123;53.088;7.392;2022-09-21T02:06:31;10.77;;;5.65;;
23884;SDS011;12123;53.088;7.392;2022-09-21T02:08:58;12.45;;;5.90;;
23884;SDS011;12123;53.088;7.392;2022-09-21T02:11:25;11.25;;;6.13;;
23884;SDS011;12123;53.088;7.392;2022-09-21T02:13:53;14.45;;;6.68;;
23884;SDS011;12123;53.088;7.392;2022-09-21T02:23:56;13.90;;;6.07;;
23884;SDS011;12123;53.088;7.392;2022-09-21T02:26:28;9.27;;;6.03;;
23884;SDS011;12123;53.088;7.392;2022-09-21T02:31:31;15.15;;;6.47;;
23884;SDS011;12123;53.088;7.392;2022-09-21T02:36:30;9.73;;;5.60;;
23884;SDS011;12123;53.088;7.392;2022-09-21T02:39:05;13.00;;;6.18;;
23884;SDS011;12123;53.088;7.392;2022-09-21T02:41:36;11.40;;;5.95;;
23884;SDS011;12123;53.088;7.392;2022-09-21T02:46:39;10.50;;;5.97;;
23884;SDS011;12123;53.088;7.392;2022-09-21T02:49:12;10.23;;;6.57;;
23884;SDS011;12123;53.088;7.392;2022-09-21T02:51:46;13.98;;;6.40;;
23884;SDS011;12123;53.088;7.392;2022-09-21T02:54:15;8.95;;;6.15;;
23884;SDS011;12123;53.088;7.392;2022-09-21T02:56:43;9.25;;;5.70;;
23884;SDS011;12123;53.088;7.392;2022-09-21T02:59:12;11.07;;;6.55;;
23884;SDS011;12123;53.088;7.392;2022-09-21T03:01:40;13.32;;;6.60;;
23884;SDS011;12123;53.088;7.392;2022-09-21T03:04:07;11.57;;;6.82;;
23884;SDS011;12123;53.088;7.392;2022-09-21T03:06:35;15.27;;;6.97;;
23884;SDS011;12123;53.088;7.392;2022-09-21T03:09:02;9.98;;;7.50;;
23884;SDS011;12123;53.088;7.392;2022-09-21T03:11:30;18.10;;;8.10;;
23884;SDS011;12123;53.088;7.392;2022-09-21T03:13:57;16.45;;;8.38;;
23884;SDS011;12123;53.088;7.392;2022-09-21T03:16:24;16.52;;;9.82;;
23884;SDS011;12123;53.088;7.392;2022-09-21T03:18:52;17.55;;;9.20;;
23884;SDS011;12123;53.088;7.392;2022-09-21T03:21:19;22.05;;;9.93;;
23884;SDS011;12123;53.088;7.392;2022-09-21T03:23:47;17.58;;;11.52;;
23884;SDS011;12123;53.088;7.392;2022-09-21T03:26:14;18.88;;;9.85;;
23884;SDS011;12123;53.088;7.392;2022-09-21T03:28:41;23.98;;;10.70;;
23884;SDS011;12123;53.088;7.392;2022-09-21T03:31:09;19.35;;;9.68;;
23884;SDS011;12123;53.088;7.392;2022-09-21T03:33:36;17.17;;;10.38;;
23884;SDS011;12123;53.088;7.392;2022-09-21T03:36:03;17.33;;;10.10;;
23884;SDS011;12123;53.088;7.392;2022-09-21T03:38:30;17.33;;;9.93;;
23884;SDS011;12123;53.088;7.392;2022-09-21T03:40:58;15.98;;;8.90;;
23884;SDS011;12123;53.088;7.392;2022-09-21T03:43:25;16.77;;;9.00;;
23884;SDS011;12123;53.088;7.392;2022-09-21T03:45:52;13.50;;;8.98;;
23884;SDS011;12123;53.088;7.392;2022-09-21T03:48:19;14.65;;;9.35;;
23884;SDS011;12123;53.088;7.392;2022-09-21T03:50:47;17.73;;;9.13;;
23884;SDS011;12123;53.088;7.392;2022-09-21T03:53:14;16.23;;;9.68;;
23884;SDS011;12123;53.088;7.392;2022-09-21T03:55:41;20.88;;;10.35;;
23884;SDS011;12123;53.088;7.392;2022-09-21T03:58:09;17.17;;;10.70;;
23884;SDS011;12123;53.088;7.392;2022-09-21T04:00:36;17.13;;;11.10;;
23884;SDS011;12123;53.088;7.392;2022-09-21T04:03:04;16.55;;;10.55;;
23884;SDS011;12123;53.088;7.392;2022-09-21T04:05:31;16.73;;;11.13;;
23884;SDS011;12123;53.088;7.392;2022-09-21T04:07:58;19.52;;;10.68;;
23884;SDS011;12123;53.088;7.392;2022-09-21T04:10:27;20.42;;;10.35;;
23884;SDS011;12123;53.088;7.392;2022-09-21T04:12:58;18.33;;;9.63;;
23884;SDS011;12123;53.088;7.392;2022-09-21T04:15:29;16.88;;;10.25;;
23884;SDS011;12123;53.088;7.392;2022-09-21T04:17:56;16.95;;;10.15;;
23884;SDS011;12123;53.088;7.392;2022-09-21T04:20:24;18.27;;;10.77;;
23884;SDS011;12123;53.088;7.392;2022-09-21T04:22:51;23.88;;;13.20;;
23884;SDS011;12123;53.088;7.392;2022-09-21T04:25:18;21.33;;;11.57;;
23884;SDS011;12123;53.088;7.392;2022-09-21T04:27:46;20.85;;;11.95;;
23884;SDS011;12123;53.088;7.392;2022-09-21T04:30:14;22.85;;;13.25;;
23884;SDS011;12123;53.088;7.392;2022-09-21T04:32:41;19.98;;;12.13;;
23884;SDS011;12123;53.088;7.392;2022-09-21T04:35:09;18.23;;;10.68;;
23884;SDS011;12123;53.088;7.392;2022-09-21T04:37:36;19.85;;;11.32;;
23884;SDS011;12123;53.088;7.392;2022-09-21T04:40:04;22.05;;;12.88;;
23884;SDS011;12123;53.088;7.392;2022-09-21T04:42:31;22.05;;;12.93;;
23884;SDS011;12123;53.088;7.392;2022-09-21T04:44:58;18.13;;;11.73;;
23884;SDS011;12123;53.088;7.392;2022-09-21T04:47:27;23.65;;;11.00;;
23884;SDS011;12123;53.088;7.392;2022-09-21T04:49:55;20.67;;;11.93;;
23884;SDS011;12123;53.088;7.392;2022-09-21T04:52:22;19.90;;;11.43;;
23884;SDS011;12123;53.088;7.392;2022-09-21T04:54:49;19.38;;;11.52;;
23884;SDS011;12123;53.088;7.392;2022-09-21T04:57:16;22.08;;;11.05;;
23884;SDS011;12123;53.088;7.392;2022-09-21T04:59:44;17.58;;;11.10;;
23884;SDS011;12123;53.088;7.392;2022-09-21T05:02:11;15.20;;;10.02;;
23884;SDS011;12123;53.088;7.392;2022-09-21T05:04:38;18.75;;;9.52;;
23884;SDS011;12123;53.088;7.392;2022-09-21T05:07:05;15.85;;;10.23;;
23884;SDS011;12123;53.088;7.392;2022-09-21T05:09:32;17.27;;;9.90;;
23884;SDS011;12123;53.088;7.392;2022-09-21T05:12:18;17.77;;;9.65;;
23884;SDS011;12123;53.088;7.392;2022-09-21T05:14:45;16.70;;;9.52;;
23884;SDS011;12123;53.088;7.392;2022-09-21T05:17:12;14.57;;;9.35;;
23884;SDS011;12123;53.088;7.392;2022-09-21T05:19:40;14.68;;;9.20;;
23884;SDS011;12123;53.088;7.392;2022-09-21T05:22:07;17.70;;;9.27;;
23884;SDS011;12123;53.088;7.392;2022-09-21T05:24:34;14.90;;;8.63;;
23884;SDS011;12123;53.088;7.392;2022-09-21T05:27:01;14.55;;;8.65;;
23884;SDS011;12123;53.088;7.392;2022-09-21T05:29:28;15.52;;;9.05;;
23884;SDS011;12123;53.088;7.392;2022-09-21T05:32:07;16.15;;;8.88;;
23884;SDS011;12123;53.088;7.392;2022-09-21T05:34:44;13.07;;;8.82;;
23884;SDS011;12123;53.088;7.392;2022-09-21T05:37:30;14.05;;;9.18;;
23884;SDS011;12123;53.088;7.392;2022-09-21T05:40:03;14.35;;;8.52;;
23884;SDS011;12123;53.088;7.392;2022-09-21T05:42:31;15.02;;;8.73;;
23884;SDS011;12123;53.088;7.392;2022-09-21T05:44:58;14.35;;;8.20;;
23884;SDS011;12123;53.088;7.392;2022-09-21T05:52:48;19.30;;;9.85;;
23884;SDS011;12123;53.088;7.392;2022-09-21T05:56:04;15.80;;;8.95;;
23884;SDS011;12123;53.088;7.392;2022-09-21T06:00:36;15.85;;;9.07;;
23884;SDS011;12123;53.088;7.392;2022-09-21T06:05:42;15.10;;;8.25;;
23884;SDS011;12123;53.088;7.392;2022-09-21T06:08:09;11.85;;;7.28;;
23884;SDS011;12123;53.088;7.392;2022-09-21T06:10:37;15.27;;;7.70;;
23884;SDS011;12123;53.088;7.392;2022-09-21T06:13:04;9.70;;;6.88;;
23884;SDS011;12123;53.088;7.392;2022-09-21T06:15:32;10.18;;;7.15;;
23884;SDS011;12123;53.088;7.392;2022-09-21T06:18:04;10.75;;;7.13;;
23884;SDS011;12123;53.088;7.392;2022-09-21T06:20:31;13.38;;;7.82;;
23884;SDS011;12123;53.088;7.392;2022-09-21T06:22:59;11.18;;;7.40;;
23884;SDS011;12123;53.088;7.392;2022-09-21T06:25:27;15.07;;;7.93;;
23884;SDS011;12123;53.088;7.392;2022-09-21T06:27:54;13.35;;;8.55;;
23884;SDS011;12123;53.088;7.392;2022-09-21T06:30:21;13.60;;;7.60;;
23884;SDS011;12123;53.088;7.392;2022-09-21T06:32:48;13.75;;;8.90;;
23884;SDS011;12123;53.088;7.392;2022-09-21T06:35:15;11.52;;;7.65;;
23884;SDS011;12123;53.088;7.392;2022-09-21T06:40:22;11.38;;;6.93;;
23884;SDS011;12123;53.088;7.392;2022-09-21T06:42:53;13.88;;;7.60;;
23884;SDS011;12123;53.088;7.392;2022-09-21T06:45:21;10.30;;;6.85;;
23884;SDS011;12123;53.088;7.392;2022-09-21T06:47:48;11.70;;;6.90;;
23884;SDS011;12123;53.088;7.392;2022-09-21T06:50:15;14.90;;;8.00;;
23884;SDS011;12123;53.088;7.392;2022-09-21T06:52:42;11.55;;;7.60;;
23884;SDS011;12123;53.088;7.392;2022-09-21T06:55:09;11.88;;;7.32;;
23884;SDS011;12123;53.088;7.392;2022-09-21T06:57:37;13.35;;;7.63;;
23884;SDS011;12123;53.088;7.392;2022-09-21T07:00:05;10.77;;;7.03;;
23884;SDS011;12123;53.088;7.392;2022-09-21T07:02:32;10.13;;;6.47;;
23884;SDS011;12123;53.088;7.392;2022-09-21T07:05:00;12.63;;;6.75;;
23884;SDS011;12123;53.088;7.392;2022-09-21T07:07:27;11.38;;;6.03;;
23884;SDS011;12123;53.088;7.392;2022-09-21T07:09:58;11.43;;;5.45;;
23884;SDS011;12123;53.088;7.392;2022-09-21T07:12:41;11.77;;;6.03;;
23884;SDS011;12123;53.088;7.392;2022-09-21T07:15:08;15.32;;;4.80;;
23884;SDS011;12123;53.088;7.392;2022-09-21T07:17:37;10.25;;;4.78;;
23884;SDS011;12123;53.088;7.392;2022-09-21T07:20:05;7.53;;;4.13;;
23884;SDS011;12123;53.088;7.392;2022-09-21T07:22:33;6.93;;;3.72;;
23884;SDS011;12123;53.088;7.392;2022-09-21T07:25:00;6.53;;;4.03;;
23884;SDS011;12123;53.088;7.392;2022-09-21T07:27:28;8.95;;;3.80;;
23884;SDS011;12123;53.088;7.392;2022-09-21T07:29:56;9.77;;;3.90;;
23884;SDS011;12123;53.088;7.392;2022-09-21T07:32:23;8.02;;;3.92;;
23884;SDS011;12123;53.088;7.392;2022-09-21T07:34:53;6.38;;;3.40;;
23884;SDS011;12123;53.088;7.392;2022-09-21T07:37:22;9.27;;;3.80;;
23884;SDS011;12123;53.088;7.392;2022-09-21T07:39:50;9.13;;;3.88;;
23884;SDS011;12123;53.088;7.392;2022-09-21T07:42:18;9.68;;;3.55;;
23884;SDS011;12123;53.088;7.392;2022-09-21T07:44:47;9.93;;;4.05;;
23884;SDS011;12123;53.088;7.392;2022-09-21T07:47:16;10.35;;;3.75;;
23884;SDS011;12123;53.088;7.392;2022-09-21T07:49:43;8.38;;;3.72;;
23884;SDS011;12123;53.088;7.392;2022-09-21T07:52:12;9.68;;;3.75;;
23884;SDS011;12123;53.088;7.392;2022-09-21T07:54:40;12.98;;;3.78;;
23884;SDS011;12123;53.088;7.392;2022-09-21T07:57:07;7.45;;;3.70;;
23884;SDS011;12123;53.088;7.392;2022-09-21T07:59:53;9.95;;;3.97;;
23884;SDS011;12123;53.088;7.392;2022-09-21T08:02:24;13.30;;;3.70;;
23884;SDS011;12123;53.088;7.392;2022-09-21T08:04:51;9.63;;;3.58;;
23884;SDS011;12123;53.088;7.392;2022-09-21T08:07:19;5.30;;;3.33;;
23884;SDS011;12123;53.088;7.392;2022-09-21T08:09:46;12.43;;;3.80;;
23884;SDS011;12123;53.088;7.392;2022-09-21T08:12:16;9.57;;;3.70;;
23884;SDS011;12123;53.088;7.392;2022-09-21T08:14:45;8.98;;;2.95;;
23884;SDS011;12123;53.088;7.392;2022-09-21T08:17:13;8.65;;;2.80;;
23884;SDS011;12123;53.088;7.392;2022-09-21T08:19:40;7.82;;;3.03;;
23884;SDS011;12123;53.088;7.392;2022-09-21T08:22:07;11.43;;;2.90;;
23884;SDS011;12123;53.088;7.392;2022-09-21T08:24:35;9.52;;;3.30;;
23884;SDS011;12123;53.088;7.392;2022-09-21T08:27:02;11.80;;;3.10;;
23884;SDS011;12123;53.088;7.392;2022-09-21T08:29:30;10.93;;;2.67;;
23884;SDS011;12123;53.088;7.392;2022-09-21T08:31:57;9.05;;;3.38;;
23884;SDS011;12123;53.088;7.392;2022-09-21T08:34:24;6.28;;;2.28;;
23884;SDS011;12123;53.088;7.392;2022-09-21T08:36:51;11.15;;;2.30;;
23884;SDS011;12123;53.088;7.392;2022-09-21T08:39:21;9.43;;;3.00;;
23884;SDS011;12123;53.088;7.392;2022-09-21T08:44:22;4.93;;;1.42;;
23884;SDS011;12123;53.088;7.392;2022-09-21T08:46:56;9.00;;;1.83;;
23884;SDS011;12123;53.088;7.392;2022-09-21T08:49:25;7.25;;;1.77;;
23884;SDS011;12123;53.088;7.392;2022-09-21T08:52:04;6.18;;;2.10;;
23884;SDS011;12123;53.088;7.392;2022-09-21T08:57:11;5.18;;;1.60;;
23884;SDS011;12123;53.088;7.392;2022-09-21T08:59:40;7.97;;;1.90;;
23884;SDS011;12123;53.088;7.392;2022-09-21T09:04:48;5.47;;;1.50;;
23884;SDS011;12123;53.088;7.392;2022-09-21T09:12:20;9.15;;;1.33;;
23884;SDS011;12123;53.088;7.392;2022-09-21T09:19:57;5.70;;;1.17;;
23884;SDS011;12123;53.088;7.392;2022-09-21T09:22:28;9.18;;;1.80;;
23884;SDS011;12123;53.088;7.392;2022-09-21T09:24:57;5.45;;;1.77;;
23884;SDS011;12123;53.088;7.392;2022-09-21T09:35:32;10.15;;;2.92;;
23884;SDS011;12123;53.088;7.392;2022-09-21T09:38:13;7.22;;;2.05;;
23884;SDS011;12123;53.088;7.392;2022-09-21T09:43:30;6.03;;;2.00;;
23884;SDS011;12123;53.088;7.392;2022-09-21T09:51:19;13.23;;;2.50;;
23884;SDS011;12123;53.088;7.392;2022-09-21T09:53:46;5.97;;;1.80;;
23884;SDS011;12123;53.088;7.392;2022-09-21T09:56:14;8.63;;;1.90;;
23884;SDS011;12123;53.088;7.392;2022-09-21T09:58:55;9.00;;;1.80;;
23884;SDS011;12123;53.088;7.392;2022-09-21T10:01:38;7.60;;;1.83;;
23884;SDS011;12123;53.088;7.392;2022-09-21T10:06:35;11.90;;;2.15;;
23884;SDS011;12123;53.088;7.392;2022-09-21T10:09:32;9.93;;;2.17;;
23884;SDS011;12123;53.088;7.392;2022-09-21T10:12:14;6.32;;;2.00;;
23884;SDS011;12123;53.088;7.392;2022-09-21T10:14:47;7.88;;;1.60;;
23884;SDS011;12123;53.088;7.392;2022-09-21T10:17:15;6.45;;;1.70;;
23884;SDS011;12123;53.088;7.392;2022-09-21T10:19:43;3.80;;;1.77;;
23884;SDS011;12123;53.088;7.392;2022-09-21T10:22:19;5.32;;;1.60;;
23884;SDS011;12123;53.088;7.392;2022-09-21T10:24:50;6.35;;;1.30;;
23884;SDS011;12123;53.088;7.392;2022-09-21T10:27:20;7.28;;;1.27;;
23884;SDS011;12123;53.088;7.392;2022-09-21T10:29:48;5.55;;;1.80;;
23884;SDS011;12123;53.088;7.392;2022-09-21T10:39:55;5.50;;;1.60;;
23884;SDS011;12123;53.088;7.392;2022-09-21T10:42:23;9.02;;;2.00;;
23884;SDS011;12123;53.088;7.392;2022-09-21T10:44:51;7.32;;;1.70;;
23884;SDS011;12123;53.088;7.392;2022-09-21T10:47:21;3.97;;;1.35;;
23884;SDS011;12123;53.088;7.392;2022-09-21T10:49:52;6.05;;;1.67;;
23884;SDS011;12123;53.088;7.392;2022-09-21T10:52:24;5.47;;;1.60;;
23884;SDS011;12123;53.088;7.392;2022-09-21T10:54:53;8.52;;;1.48;;
23884;SDS011;12123;53.088;7.392;2022-09-21T10:57:21;5.40;;;1.42;;
23884;SDS011;12123;53.088;7.392;2022-09-21T10:59:49;6.30;;;2.00;;
23884;SDS011;12123;53.088;7.392;2022-09-21T11:02:25;7.10;;;1.75;;
23884;SDS011;12123;53.088;7.392;2022-09-21T11:04:56;3.72;;;1.25;;
23884;SDS011;12123;53.088;7.392;2022-09-21T11:07:32;6.82;;;1.52;;
23884;SDS011;12123;53.088;7.392;2022-09-21T11:20:46;4.03;;;1.70;;
23884;SDS011;12123;53.088;7.392;2022-09-21T11:23:20;5.60;;;1.60;;
23884;SDS011;12123;53.088;7.392;2022-09-21T11:25:59;5.80;;;1.48;;
23884;SDS011;12123;53.088;7.392;2022-09-21T11:39:42;6.10;;;1.40;;
23884;SDS011;12123;53.088;7.392;2022-09-21T11:42:26;4.05;;;1.20;;
23884;SDS011;12123;53.088;7.392;2022-09-21T11:44:58;6.05;;;1.70;;
23884;SDS011;12123;53.088;7.392;2022-09-21T11:47:39;5.88;;;1.80;;
23884;SDS011;12123;53.088;7.392;2022-09-21T12:01:07;4.32;;;1.17;;
23884;SDS011;12123;53.088;7.392;2022-09-21T12:21:58;5.13;;;1.20;;
23884;SDS011;12123;53.088;7.392;2022-09-21T12:24:30;9.32;;;1.80;;
23884;SDS011;12123;53.088;7.392;2022-09-21T12:27:08;3.30;;;1.45;;
23884;SDS011;12123;53.088;7.392;2022-09-21T12:29:38;4.43;;;1.40;;
23884;SDS011;12123;53.088;7.392;2022-09-21T12:32:14;2.33;;;1.15;;
23884;SDS011;12123;53.088;7.392;2022-09-21T12:34:46;1.52;;;0.82;;
23884;SDS011;12123;53.088;7.392;2022-09-21T12:39:50;3.53;;;1.23;;
23884;SDS011;12123;53.088;7.392;2022-09-21T12:50:18;5.90;;;1.90;;
23884;SDS011;12123;53.088;7.392;2022-09-21T12:52:46;4.18;;;1.00;;
23884;SDS011;12123;53.088;7.392;2022-09-21T12:57:48;12.90;;;1.23;;
23884;SDS011;12123;53.088;7.392;2022-09-21T13:00:41;8.57;;;1.67;;
23884;SDS011;12123;53.088;7.392;2022-09-21T13:03:18;3.13;;;1.30;;
23884;SDS011;12123;53.088;7.392;2022-09-21T13:05:56;6.15;;;1.48;;
23884;SDS011;12123;53.088;7.392;2022-09-21T13:08:32;5.68;;;1.20;;
23884;SDS011;12123;53.088;7.392;2022-09-21T13:11:03;2.90;;;0.95;;
23884;SDS011;12123;53.088;7.392;2022-09-21T13:16:34;4.95;;;1.02;;
23884;SDS011;12123;53.088;7.392;2022-09-21T13:19:20;2.90;;;1.10;;
23884;SDS011;12123;53.088;7.392;2022-09-21T13:24:39;6.93;;;1.30;;
23884;SDS011;12123;53.088;7.392;2022-09-21T13:27:08;5.22;;;1.30;;
23884;SDS011;12123;53.088;7.392;2022-09-21T13:29:36;5.32;;;1.38;;
23884;SDS011;12123;53.088;7.392;2022-09-21T13:32:20;7.00;;;1.63;;
23884;SDS011;12123;53.088;7.392;2022-09-21T13:34:47;6.43;;;1.50;;
23884;SDS011;12123;53.088;7.392;2022-09-21T13:44:57;3.88;;;1.15;;
23884;SDS011;12123;53.088;7.392;2022-09-21T13:47:28;3.58;;;0.80;;
23884;SDS011;12123;53.088;7.392;2022-09-21T13:49:56;3.85;;;0.90;;
23884;SDS011;12123;53.088;7.392;2022-09-21T13:52:27;4.60;;;1.08;;
23884;SDS011;12123;53.088;7.392;2022-09-21T13:54:56;5.75;;;1.35;;
23884;SDS011;12123;53.088;7.392;2022-09-21T13:57:26;3.95;;;0.95;;
23884;SDS011;12123;53.088;7.392;2022-09-21T14:00:05;2.70;;;0.93;;
23884;SDS011;12123;53.088;7.392;2022-09-21T14:05:03;4.50;;;1.30;;
23884;SDS011;12123;53.088;7.392;2022-09-21T14:07:30;4.43;;;0.95;;
23884;SDS011;12123;53.088;7.392;2022-09-21T14:09:59;3.58;;;1.13;;
23884;SDS011;12123;53.088;7.392;2022-09-21T14:12:30;7.25;;;1.23;;
23884;SDS011;12123;53.088;7.392;2022-09-21T14:17:38;6.30;;;1.05;;
23884;SDS011;12123;53.088;7.392;2022-09-21T14:28:10;4.63;;;1.27;;
23884;SDS011;12123;53.088;7.392;2022-09-21T14:30:38;7.03;;;1.35;;
23884;SDS011;12123;53.088;7.392;2022-09-21T14:33:14;3.50;;;1.17;;
23884;SDS011;12123;53.088;7.392;2022-09-21T14:35:43;5.38;;;1.00;;
23884;SDS011;12123;53.088;7.392;2022-09-21T14:38:33;3.90;;;1.38;;
23884;SDS011;12123;53.088;7.392;2022-09-21T14:41:02;3.58;;;1.30;;
23884;SDS011;12123;53.088;7.392;2022-09-21T14:43:33;3.13;;;0.98;;
23884;SDS011;12123;53.088;7.392;2022-09-21T14:52:02;4.10;;;0.90;;
23884;SDS011;12123;53.088;7.392;2022-09-21T14:56:34;3.25;;;1.40;;
23884;SDS011;12123;53.088;7.392;2022-09-21T14:59:10;6.03;;;1.17;;
23884;SDS011;12123;53.088;7.392;2022-09-21T15:01:40;6.90;;;1.42;;
23884;SDS011;12123;53.088;7.392;2022-09-21T15:10:23;5.22;;;1.70;;
23884;SDS011;12123;53.088;7.392;2022-09-21T15:13:21;3.17;;;1.00;;
23884;SDS011;12123;53.088;7.392;2022-09-21T15:18:40;3.40;;;1.17;;
23884;SDS011;12123;53.088;7.392;2022-09-21T15:21:15;4.10;;;1.38;;
23884;SDS011;12123;53.088;7.392;2022-09-21T15:23:44;5.18;;;1.30;;
23884;SDS011;12123;53.088;7.392;2022-09-21T15:26:15;5.15;;;1.45;;
23884;SDS011;12123;53.088;7.392;2022-09-21T15:28:46;7.57;;;1.27;;
23884;SDS011;12123;53.088;7.392;2022-09-21T15:31:36;4.28;;;1.20;;
23884;SDS011;12123;53.088;7.392;2022-09-21T15:34:04;3.40;;;1.02;;
23884;SDS011;12123;53.088;7.392;2022-09-21T15:36:33;6.60;;;1.48;;
23884;SDS011;12123;53.088;7.392;2022-09-21T15:39:00;10.43;;;1.60;;
23884;SDS011;12123;53.088;7.392;2022-09-21T15:41:41;9.40;;;1.40;;
23884;SDS011;12123;53.088;7.392;2022-09-21T15:46:37;5.10;;;1.15;;
23884;SDS011;12123;53.088;7.392;2022-09-21T15:49:09;9.05;;;1.38;;
23884;SDS011;12123;53.088;7.392;2022-09-21T15:51:37;4.10;;;1.15;;
23884;SDS011;12123;53.088;7.392;2022-09-21T15:54:08;3.72;;;1.27;;
23884;SDS011;12123;53.088;7.392;2022-09-21T15:56:41;3.60;;;1.02;;
23884;SDS011;12123;53.088;7.392;2022-09-21T15:59:11;3.60;;;1.20;;
23884;SDS011;12123;53.088;7.392;2022-09-21T16:01:40;4.15;;;0.90;;
23884;SDS011;12123;53.088;7.392;2022-09-21T16:04:11;9.35;;;1.80;;
23884;SDS011;12123;53.088;7.392;2022-09-21T16:06:43;3.35;;;0.95;;
23884;SDS011;12123;53.088;7.392;2022-09-21T16:11:57;5.40;;;1.02;;
23884;SDS011;12123;53.088;7.392;2022-09-21T16:14:24;5.22;;;1.30;;
23884;SDS011;12123;53.088;7.392;2022-09-21T16:20:23;2.55;;;0.68;;
23884;SDS011;12123;53.088;7.392;2022-09-21T16:22:29;8.85;;;1.90;;
23884;SDS011;12123;53.088;7.392;2022-09-21T16:24:58;4.25;;;0.82;;
23884;SDS011;12123;53.088;7.392;2022-09-21T16:27:27;5.15;;;1.30;;
23884;SDS011;12123;53.088;7.392;2022-09-21T16:29:54;5.82;;;1.15;;
23884;SDS011;12123;53.088;7.392;2022-09-21T16:40:09;5.65;;;1.00;;
23884;SDS011;12123;53.088;7.392;2022-09-21T16:42:37;3.92;;;0.80;;
23884;SDS011;12123;53.088;7.392;2022-09-21T16:45:06;7.13;;;1.15;;
23884;SDS011;12123;53.088;7.392;2022-09-21T16:47:36;8.82;;;1.25;;
23884;SDS011;12123;53.088;7.392;2022-09-21T16:50:10;7.68;;;1.20;;
23884;SDS011;12123;53.088;7.392;2022-09-21T16:52:42;2.60;;;0.75;;
23884;SDS011;12123;53.088;7.392;2022-09-21T16:57:44;5.88;;;1.13;;
23884;SDS011;12123;53.088;7.392;2022-09-21T17:00:14;4.07;;;0.80;;
23884;SDS011;12123;53.088;7.392;2022-09-21T17:02:47;2.85;;;0.95;;
23884;SDS011;12123;53.088;7.392;2022-09-21T17:05:15;3.60;;;0.98;;
23884;SDS011;12123;53.088;7.392;2022-09-21T17:07:54;4.50;;;1.35;;
23884;SDS011;12123;53.088;7.392;2022-09-21T17:10:26;4.07;;;1.00;;
23884;SDS011;12123;53.088;7.392;2022-09-21T17:12:54;7.82;;;1.90;;
23884;SDS011;12123;53.088;7.392;2022-09-21T17:15:22;8.52;;;1.25;;
23884;SDS011;12123;53.088;7.392;2022-09-21T17:17:50;5.72;;;1.48;;
23884;SDS011;12123;53.088;7.392;2022-09-21T17:22:53;8.82;;;1.50;;
23884;SDS011;12123;53.088;7.392;2022-09-21T17:25:21;9.10;;;1.67;;
23884;SDS011;12123;53.088;7.392;2022-09-21T17:27:48;10.68;;;1.30;;
23884;SDS011;12123;53.088;7.392;2022-09-21T17:30:17;6.97;;;1.50;;
23884;SDS011;12123;53.088;7.392;2022-09-21T17:32:46;6.55;;;1.65;;
23884;SDS011;12123;53.088;7.392;2022-09-21T17:37:42;8.27;;;1.60;;
23884;SDS011;12123;53.088;7.392;2022-09-21T17:40:09;3.50;;;1.30;;
23884;SDS011;12123;53.088;7.392;2022-09-21T17:42:38;9.70;;;1.50;;
23884;SDS011;12123;53.088;7.392;2022-09-21T17:47:39;5.25;;;1.50;;
23884;SDS011;12123;53.088;7.392;2022-09-21T17:52:40;6.30;;;1.70;;
23884;SDS011;12123;53.088;7.392;2022-09-21T17:55:27;5.82;;;2.67;;
23884;SDS011;12123;53.088;7.392;2022-09-21T18:00:35;4.78;;;2.00;;
23884;SDS011;12123;53.088;7.392;2022-09-21T18:03:11;8.88;;;2.30;;
23884;SDS011;12123;53.088;7.392;2022-09-21T18:05:40;6.18;;;2.30;;
23884;SDS011;12123;53.088;7.392;2022-09-21T18:08:08;7.13;;;2.70;;
23884;SDS011;12123;53.088;7.392;2022-09-21T18:10:36;9.70;;;2.85;;
23884;SDS011;12123;53.088;7.392;2022-09-21T18:13:53;10.45;;;2.38;;
23884;SDS011;12123;53.088;7.392;2022-09-21T18:18:42;25.08;;;4.15;;
23884;SDS011;12123;53.088;7.392;2022-09-21T18:21:11;22.20;;;4.55;;
23884;SDS011;12123;53.088;7.392;2022-09-21T18:26:09;19.40;;;4.43;;
23884;SDS011;12123;53.088;7.392;2022-09-21T18:28:43;20.20;;;4.93;;
23884;SDS011;12123;53.088;7.392;2022-09-21T18:44:52;19.10;;;5.18;;
23884;SDS011;12123;53.088;7.392;2022-09-21T18:47:34;20.55;;;5.50;;
23884;SDS011;12123;53.088;7.392;2022-09-21T18:50:05;13.65;;;6.30;;
23884;SDS011;12123;53.088;7.392;2022-09-21T18:55:04;16.60;;;6.35;;
23884;SDS011;12123;53.088;7.392;2022-09-21T18:57:37;12.88;;;6.63;;
23884;SDS011;12123;53.088;7.392;2022-09-21T19:00:05;18.83;;;6.20;;
23884;SDS011;12123;53.088;7.392;2022-09-21T19:02:32;9.50;;;5.63;;
23884;SDS011;12123;53.088;7.392;2022-09-21T19:04:59;14.25;;;6.10;;
23884;SDS011;12123;53.088;7.392;2022-09-21T19:07:35;9.85;;;5.43;;